Rp Zug — HE7351 — position and weather

sailwx.info

Track history (hours):
 
Tides and Currents Weather Stations Pressure Air Temp Water Temp Dewpoint Dewpoint Depression Visibility Wind Speed Wind Dir Waves Ship Positions

Rp Zug

Last reported at 2014-Nov-23 06:33 UTC. Time now 2014-Nov-23 07:30 UTC.
Position N 52°24' E 004°51'.

Type: Tanker. MMSI: 269057351.

Date/timePositionNaut miles runAvg speedWind from/ knotsBaromVisibWave heightAir tempDewpointWater temp
2014-Nov-23 06:33N 52°24' E 004°51'0 0.0
2014-Nov-23 05:34N 52°24' E 004°51'0 0.0
2014-Nov-23 04:34N 52°24' E 004°51'0 0.0
2014-Nov-23 03:33N 52°24' E 004°51'0 0.0
2014-Nov-23 02:33N 52°24' E 004°51'0 0.0
2014-Nov-23 01:34N 52°24' E 004°51'0 0.0
2014-Nov-23 00:34N 52°24' E 004°51'0 0.0
2014-Nov-22 23:34N 52°24' E 004°51'0 0.0
2014-Nov-22 22:34N 52°24' E 004°51'0 0.0
2014-Nov-22 21:33N 52°24' E 004°51'0 0.0
2014-Nov-22 20:34N 52°24' E 004°51'0 0.0
2014-Nov-22 19:34N 52°24' E 004°51'0 0.5
2014-Nov-22 18:33N 52°25' E 004°50'0 0.1
2014-Nov-22 17:33N 52°25' E 004°50'0 0.0
2014-Nov-22 16:33N 52°25' E 004°50'0 0.0
2014-Nov-22 15:33N 52°25' E 004°50'0 0.0
2014-Nov-22 14:33N 52°25' E 004°50'0 0.0
2014-Nov-22 13:33N 52°25' E 004°50'0 0.0
2014-Nov-22 12:33N 52°25' E 004°50'0 0.0
2014-Nov-22 11:33N 52°25' E 004°50'4 4.4
2014-Nov-22 10:34N 52°23' E 004°57'9 8.7
2014-Nov-22 09:33N 52°14' E 005°01'9 8.7
2014-Nov-22 08:33N 52°06' E 005°05'9 8.9
2014-Nov-22 07:33N 51°59' E 005°14'5 4.5
2014-Nov-22 06:33N 51°57' E 005°21'5 5.5
2014-Nov-22 05:33N 51°54' E 005°27'8 7.7
2014-Nov-22 04:33N 51°54' E 005°40'2510.5
2014-Nov-22 02:08N 51°47' E 006°19'910.3
2014-Nov-22 01:14N 51°40' E 006°29'7 9.3
2014-Nov-22 00:30N 51°35' E 006°36'16 0.5
2014-Nov-20 15:33N 51°19' E 006°44'8 8.5
2014-Nov-20 14:33N 51°11' E 006°44'18 8.4
2014-Nov-20 12:22N 50°55' E 006°58'111 2.4
2014-Nov-18 13:32N 49°20' E 008°27'9 9.0
2014-Nov-18 12:33N 49°12' E 008°23'8 7.9
2014-Nov-18 11:33N 49°04' E 008°20'0 0.0
2014-Nov-18 10:33N 49°04' E 008°20'0 0.0
2014-Nov-18 09:33N 49°04' E 008°20'0 0.0
2014-Nov-18 08:33N 49°04' E 008°20'0 0.0
2014-Nov-18 07:33N 49°04' E 008°20'0 0.0
2014-Nov-18 06:33N 49°04' E 008°20'0 0.0
2014-Nov-18 05:33N 49°04' E 008°20'0 0.0
2014-Nov-18 04:33N 49°04' E 008°20'0 0.0
2014-Nov-18 03:33N 49°04' E 008°20'0 0.0
2014-Nov-18 02:33N 49°04' E 008°20'0 0.0
2014-Nov-18 01:33N 49°04' E 008°20'0 0.1
2014-Nov-18 00:33N 49°04' E 008°20'0 0.0
2014-Nov-17 23:33N 49°04' E 008°20'0 0.0
2014-Nov-17 22:33N 49°04' E 008°20'0 0.0
2014-Nov-17 21:33N 49°04' E 008°20'2 1.6
2014-Nov-17 20:33N 49°03' E 008°19'1111.2
2014-Nov-17 19:33N 48°54' E 008°09'6 5.7
2014-Nov-17 18:32N 48°49' E 008°06'9 9.6
2014-Nov-17 17:33N 48°42' E 007°56'1 0.0
2014-Nov-16 12:30N 48°41' E 007°55'4 4.0
2014-Nov-16 11:33N 48°44' E 007°58'6 6.1
2014-Nov-16 10:33N 48°48' E 008°05'4 3.8
2014-Nov-16 09:28N 48°52' E 008°07'3 3.7
2014-Nov-16 08:33N 48°55' E 008°10'4 3.7
2014-Nov-16 07:33N 48°58' E 008°13'4 4.1
2014-Nov-16 06:33N 49°01' E 008°18'4 4.4
2014-Nov-16 05:33N 49°05' E 008°20'5 4.5
2014-Nov-16 04:33N 49°09' E 008°22'4 4.5
2014-Nov-16 03:33N 49°14' E 008°23'5 4.7
2014-Nov-16 02:33N 49°17' E 008°28'3 3.5
2014-Nov-16 01:33N 49°21' E 008°28'111 3.8
2014-Nov-14 20:34N 50°55' E 006°58'11 4.5
2014-Nov-14 18:05N 51°06' E 006°52'2 4.3
2014-Nov-14 17:32N 51°08' E 006°51'3 2.7
2014-Nov-14 16:33N 51°09' E 006°48'4 4.3
2014-Nov-14 15:34N 51°13' E 006°44'2 2.5
2014-Nov-14 14:33N 51°15' E 006°44'51 3.9
2014-Nov-14 01:32N 51°53' E 005°48'7 7.0
2014-Nov-14 00:33N 51°54' E 005°37'7 6.9
2014-Nov-13 23:33N 51°52' E 005°26'5 5.3
2014-Nov-13 22:34N 51°49' E 005°19'7 7.1
2014-Nov-13 21:33N 51°49' E 005°08'8 7.9
2014-Nov-13 20:34N 51°50' E 004°55'8 7.9
2014-Nov-13 19:34N 51°45' E 004°44'9 9.3
2014-Nov-13 18:33N 51°42' E 004°30'4 4.0
2014-Nov-13 17:33N 51°41' E 004°24'8 7.6
2014-Nov-13 16:33N 51°39' E 004°12'4 3.8
2014-Nov-13 15:33N 51°39' E 004°06'8 7.6
2014-Nov-13 14:33N 51°33' E 003°59'6 6.0
2014-Nov-13 13:33N 51°27' E 004°01'6 5.8
2014-Nov-13 12:31N 51°23' E 003°54'8 7.9
2014-Nov-13 11:34N 51°26' E 003°42'1 1.4
2014-Nov-13 10:33N 51°27' E 003°43'0 0.0
2014-Nov-13 09:33N 51°27' E 003°43'0 0.3
2014-Nov-13 08:34N 51°27' E 003°43'0 0.0
2014-Nov-13 07:33N 51°27' E 003°43'0 0.0
2014-Nov-13 06:33N 51°27' E 003°43'  
Track history (hours):
 
Tides and Currents Weather Stations Pressure Air Temp Water Temp Dewpoint Dewpoint Depression Visibility Wind Speed Wind Dir Waves Ship Positions

Rp Zug

Last reported at 2014-Nov-23 06:33 UTC. Time now 2014-Nov-23 07:30 UTC.
Position N 52°24' E 004°51'.

Type: Tanker. MMSI: 269057351.

Date/timePositionNaut miles runAvg speedWind from/ knotsBaromVisibWave heightAir tempDewpointWater temp
2014-Nov-23 06:33N 52°24' E 004°51'0 0.0
2014-Nov-23 05:34N 52°24' E 004°51'0 0.0
2014-Nov-23 04:34N 52°24' E 004°51'0 0.0
2014-Nov-23 03:33N 52°24' E 004°51'0 0.0
2014-Nov-23 02:33N 52°24' E 004°51'0 0.0
2014-Nov-23 01:34N 52°24' E 004°51'0 0.0
2014-Nov-23 00:34N 52°24' E 004°51'0 0.0
2014-Nov-22 23:34N 52°24' E 004°51'0 0.0
2014-Nov-22 22:34N 52°24' E 004°51'0 0.0
2014-Nov-22 21:33N 52°24' E 004°51'0 0.0
2014-Nov-22 20:34N 52°24' E 004°51'0 0.0
2014-Nov-22 19:34N 52°24' E 004°51'0 0.5
2014-Nov-22 18:33N 52°25' E 004°50'0 0.1
2014-Nov-22 17:33N 52°25' E 004°50'0 0.0
2014-Nov-22 16:33N 52°25' E 004°50'0 0.0
2014-Nov-22 15:33N 52°25' E 004°50'0 0.0
2014-Nov-22 14:33N 52°25' E 004°50'0 0.0
2014-Nov-22 13:33N 52°25' E 004°50'0 0.0
2014-Nov-22 12:33N 52°25' E 004°50'0 0.0
2014-Nov-22 11:33N 52°25' E 004°50'4 4.4
2014-Nov-22 10:34N 52°23' E 004°57'9 8.7
2014-Nov-22 09:33N 52°14' E 005°01'9 8.7
2014-Nov-22 08:33N 52°06' E 005°05'9 8.9
2014-Nov-22 07:33N 51°59' E 005°14'5 4.5
2014-Nov-22 06:33N 51°57' E 005°21'5 5.5
2014-Nov-22 05:33N 51°54' E 005°27'8 7.7
2014-Nov-22 04:33N 51°54' E 005°40'2510.5
2014-Nov-22 02:08N 51°47' E 006°19'910.3
2014-Nov-22 01:14N 51°40' E 006°29'7 9.3
2014-Nov-22 00:30N 51°35' E 006°36'16 0.5
2014-Nov-20 15:33N 51°19' E 006°44'8 8.5
2014-Nov-20 14:33N 51°11' E 006°44'18 8.4
2014-Nov-20 12:22N 50°55' E 006°58'111 2.4
2014-Nov-18 13:32N 49°20' E 008°27'9 9.0
2014-Nov-18 12:33N 49°12' E 008°23'8 7.9
2014-Nov-18 11:33N 49°04' E 008°20'0 0.0
2014-Nov-18 10:33N 49°04' E 008°20'0 0.0
2014-Nov-18 09:33N 49°04' E 008°20'0 0.0
2014-Nov-18 08:33N 49°04' E 008°20'0 0.0
2014-Nov-18 07:33N 49°04' E 008°20'0 0.0
2014-Nov-18 06:33N 49°04' E 008°20'0 0.0
2014-Nov-18 05:33N 49°04' E 008°20'0 0.0
2014-Nov-18 04:33N 49°04' E 008°20'0 0.0
2014-Nov-18 03:33N 49°04' E 008°20'0 0.0
2014-Nov-18 02:33N 49°04' E 008°20'0 0.0
2014-Nov-18 01:33N 49°04' E 008°20'0 0.1
2014-Nov-18 00:33N 49°04' E 008°20'0 0.0
2014-Nov-17 23:33N 49°04' E 008°20'0 0.0
2014-Nov-17 22:33N 49°04' E 008°20'0 0.0
2014-Nov-17 21:33N 49°04' E 008°20'2 1.6
2014-Nov-17 20:33N 49°03' E 008°19'1111.2
2014-Nov-17 19:33N 48°54' E 008°09'6 5.7
2014-Nov-17 18:32N 48°49' E 008°06'9 9.6
2014-Nov-17 17:33N 48°42' E 007°56'1 0.0
2014-Nov-16 12:30N 48°41' E 007°55'4 4.0
2014-Nov-16 11:33N 48°44' E 007°58'6 6.1
2014-Nov-16 10:33N 48°48' E 008°05'4 3.8
2014-Nov-16 09:28N 48°52' E 008°07'3 3.7
2014-Nov-16 08:33N 48°55' E 008°10'4 3.7
2014-Nov-16 07:33N 48°58' E 008°13'4 4.1
2014-Nov-16 06:33N 49°01' E 008°18'4 4.4
2014-Nov-16 05:33N 49°05' E 008°20'5 4.5
2014-Nov-16 04:33N 49°09' E 008°22'4 4.5
2014-Nov-16 03:33N 49°14' E 008°23'5 4.7
2014-Nov-16 02:33N 49°17' E 008°28'3 3.5
2014-Nov-16 01:33N 49°21' E 008°28'111 3.8
2014-Nov-14 20:34N 50°55' E 006°58'11 4.5
2014-Nov-14 18:05N 51°06' E 006°52'2 4.3
2014-Nov-14 17:32N 51°08' E 006°51'3 2.7
2014-Nov-14 16:33N 51°09' E 006°48'4 4.3
2014-Nov-14 15:34N 51°13' E 006°44'2 2.5
2014-Nov-14 14:33N 51°15' E 006°44'51 3.9
2014-Nov-14 01:32N 51°53' E 005°48'7 7.0
2014-Nov-14 00:33N 51°54' E 005°37'7 6.9
2014-Nov-13 23:33N 51°52' E 005°26'5 5.3
2014-Nov-13 22:34N 51°49' E 005°19'7 7.1
2014-Nov-13 21:33N 51°49' E 005°08'8 7.9
2014-Nov-13 20:34N 51°50' E 004°55'8 7.9
2014-Nov-13 19:34N 51°45' E 004°44'9 9.3
2014-Nov-13 18:33N 51°42' E 004°30'4 4.0
2014-Nov-13 17:33N 51°41' E 004°24'8 7.6
2014-Nov-13 16:33N 51°39' E 004°12'4 3.8
2014-Nov-13 15:33N 51°39' E 004°06'8 7.6
2014-Nov-13 14:33N 51°33' E 003°59'6 6.0
2014-Nov-13 13:33N 51°27' E 004°01'6 5.8
2014-Nov-13 12:31N 51°23' E 003°54'8 7.9
2014-Nov-13 11:34N 51°26' E 003°42'1 1.4
2014-Nov-13 10:33N 51°27' E 003°43'0 0.0
2014-Nov-13 09:33N 51°27' E 003°43'0 0.3
2014-Nov-13 08:34N 51°27' E 003°43'0 0.0
2014-Nov-13 07:33N 51°27' E 003°43'0 0.0
2014-Nov-13 06:33N 51°27' E 003°43'  

Dump ship's entire track history